createdAt,value
2023-10-09T00:01:27.941Z,66.05
2023-10-09T00:03:55.644Z,67.19
2023-10-09T00:06:38.222Z,71.71
2023-10-09T00:09:40.979Z,68.31
2023-10-09T00:12:11.532Z,67.61
2023-10-09T00:14:41.393Z,66.93
2023-10-09T00:17:13.733Z,67.07
2023-10-09T00:19:40.411Z,66.60
2023-10-09T00:22:27.434Z,61.88
2023-10-09T00:25:11.013Z,66.93
2023-10-09T00:27:45.653Z,66.67
2023-10-09T00:30:30.692Z,66.95
2023-10-09T00:33:05.085Z,66.67
2023-10-09T00:35:37.979Z,66.73
2023-10-09T00:38:15.534Z,66.48
2023-10-09T00:40:48.371Z,66.58
2023-10-09T00:43:15.165Z,67.72
2023-10-09T00:45:45.804Z,66.55
2023-10-09T00:48:16.792Z,66.62
2023-10-09T00:50:54.023Z,66.09
2023-10-09T00:53:31.637Z,66.83
2023-10-09T00:56:00.329Z,60.35
2023-10-09T00:58:32.198Z,66.64
2023-10-09T01:01:00.686Z,71.11
2023-10-09T01:03:28.492Z,69.75
2023-10-09T01:06:00.141Z,67.24
2023-10-09T01:08:42.562Z,67.15
2023-10-09T01:11:19.348Z,66.55
2023-10-09T01:13:47.610Z,66.54
2023-10-09T01:16:19.035Z,66.72
2023-10-09T01:18:48.208Z,67.16
2023-10-09T01:21:16.162Z,66.29
2023-10-09T01:24:04.982Z,66.35
2023-10-09T01:26:40.716Z,66.56
2023-10-09T01:29:12.017Z,66.93
2023-10-09T01:31:44.750Z,66.59
2023-10-09T01:34:13.937Z,65.13
2023-10-09T01:36:40.788Z,71.37
2023-10-09T01:39:24.394Z,60.36
2023-10-09T01:41:53.203Z,68.08
2023-10-09T01:44:20.120Z,67.09
2023-10-09T01:46:49.824Z,61.58
2023-10-09T01:49:22.618Z,70.26
2023-10-09T01:51:51.613Z,67.40
2023-10-09T01:54:34.666Z,66.44
2023-10-09T01:57:06.662Z,66.42
2023-10-09T01:59:34.090Z,65.26
2023-10-09T02:02:06.993Z,66.21
2023-10-09T02:04:33.796Z,66.46
2023-10-09T02:07:00.697Z,66.63
2023-10-09T02:09:32.683Z,66.44
2023-10-09T02:11:59.418Z,66.10
2023-10-09T02:14:26.304Z,66.11
2023-10-09T02:17:09.124Z,71.13
2023-10-09T02:19:35.903Z,62.36
2023-10-09T02:22:13.719Z,66.90
2023-10-09T02:24:58.900Z,66.53
2023-10-09T02:27:42.240Z,67.07
2023-10-09T02:30:16.593Z,66.85
2023-10-09T02:32:44.413Z,72.43
2023-10-09T02:35:29.275Z,67.38
2023-10-09T02:37:59.040Z,68.01
2023-10-09T02:40:34.586Z,66.89
2023-10-09T02:43:01.594Z,66.22
2023-10-09T02:45:36.034Z,67.26
2023-10-09T02:48:11.942Z,70.89
2023-10-09T02:50:40.024Z,72.56
2023-10-09T02:53:10.952Z,67.60
2023-10-09T02:55:40.015Z,69.12
2023-10-09T02:58:08.507Z,60.60
2023-10-09T03:00:37.436Z,68.29
2023-10-09T03:03:07.515Z,67.41
2023-10-09T03:05:34.609Z,66.50
2023-10-09T03:08:01.428Z,66.64
2023-10-09T03:10:28.122Z,66.36
2023-10-09T03:12:56.897Z,66.61
2023-10-09T03:15:23.730Z,66.60
2023-10-09T03:17:50.459Z,64.46
2023-10-09T03:20:18.692Z,66.69
2023-10-09T03:22:46.590Z,66.83
2023-10-09T03:25:15.541Z,61.34
2023-10-09T03:27:51.612Z,67.37
2023-10-09T03:30:25.902Z,66.53
2023-10-09T03:32:53.898Z,61.49
2023-10-09T03:35:28.459Z,71.44
2023-10-09T03:38:12.701Z,67.55
2023-10-09T03:40:43.556Z,66.73
2023-10-09T03:43:11.849Z,67.25
2023-10-09T03:45:46.434Z,69.93
2023-10-09T03:48:21.867Z,67.26
2023-10-09T03:50:49.825Z,66.96
2023-10-09T03:53:17.288Z,66.69
2023-10-09T03:55:43.925Z,61.72
2023-10-09T03:58:14.785Z,65.68
2023-10-09T04:00:47.004Z,66.98
2023-10-09T04:03:16.324Z,67.22
2023-10-09T04:05:46.520Z,67.96
2023-10-09T04:08:30.486Z,66.80
2023-10-09T04:11:03.928Z,64.41
2023-10-09T04:13:35.905Z,68.12
2023-10-09T04:16:23.139Z,67.91
2023-10-09T04:18:50.587Z,67.59
2023-10-09T04:21:20.269Z,69.79
2023-10-09T04:24:06.328Z,69.14
2023-10-09T04:26:35.958Z,67.23
2023-10-09T04:29:03.334Z,66.60
2023-10-09T04:31:35.771Z,66.75
2023-10-09T04:34:23.226Z,66.79
2023-10-09T04:36:58.120Z,67.01
2023-10-09T04:39:30.518Z,67.52
2023-10-09T04:42:20.735Z,67.31
2023-10-09T04:45:03.800Z,66.52
2023-10-09T04:47:59.952Z,66.27
2023-10-09T04:50:32.588Z,62.57
2023-10-09T04:53:19.211Z,66.99
2023-10-09T04:55:55.348Z,69.87
2023-10-09T04:58:26.193Z,67.06
2023-10-09T05:01:00.276Z,68.23
2023-10-09T05:03:44.469Z,67.67
2023-10-09T05:06:30.948Z,63.98
2023-10-09T05:09:08.886Z,67.98
2023-10-09T05:11:54.083Z,66.69
2023-10-09T05:14:39.992Z,67.33
2023-10-09T05:17:07.849Z,70.50
2023-10-09T05:19:54.843Z,67.76
2023-10-09T05:22:37.431Z,67.19
2023-10-09T05:25:16.001Z,67.04
2023-10-09T05:27:47.052Z,67.07
2023-10-09T05:30:26.149Z,66.64
2023-10-09T05:32:59.986Z,66.49
2023-10-09T05:35:40.629Z,66.73
2023-10-09T05:38:26.144Z,66.44
2023-10-09T05:41:06.036Z,64.24
2023-10-09T05:43:51.403Z,66.81
2023-10-09T05:46:18.146Z,64.42
2023-10-09T05:48:44.828Z,65.68
2023-10-09T05:51:35.880Z,73.37
2023-10-09T05:54:25.779Z,77.00
2023-10-09T05:57:21.751Z,73.08
2023-10-09T06:00:07.110Z,70.50
2023-10-09T06:03:02.640Z,66.87
2023-10-09T06:05:41.690Z,65.97
2023-10-09T06:08:13.943Z,65.79
2023-10-09T06:10:41.965Z,69.90
2023-10-09T06:13:27.688Z,67.56
2023-10-09T06:16:10.922Z,66.11
2023-10-09T06:18:44.533Z,66.52
2023-10-09T06:21:31.631Z,66.64
2023-10-09T06:24:18.990Z,65.02
2023-10-09T06:26:59.275Z,66.12
2023-10-09T06:29:44.746Z,66.01
2023-10-09T06:32:27.483Z,66.24
2023-10-09T06:35:16.184Z,67.73
2023-10-09T06:38:01.651Z,66.23
2023-10-09T06:40:48.708Z,68.83
2023-10-09T06:43:18.647Z,66.04
2023-10-09T06:45:45.637Z,66.95
2023-10-09T06:48:31.653Z,69.44
2023-10-09T06:51:17.233Z,67.17
2023-10-09T06:53:55.977Z,70.19
2023-10-09T06:56:48.892Z,66.67
2023-10-09T06:59:25.631Z,66.30
2023-10-09T07:02:11.543Z,66.14
2023-10-09T07:04:38.999Z,67.30
2023-10-09T07:07:11.277Z,66.65
2023-10-09T07:09:44.433Z,66.38
2023-10-09T07:12:21.759Z,71.93
2023-10-09T07:14:48.539Z,73.91
2023-10-09T07:17:24.600Z,68.53
2023-10-09T07:19:52.606Z,67.45
2023-10-09T07:22:22.412Z,72.00
2023-10-09T07:24:51.130Z,67.32
2023-10-09T07:27:40.403Z,74.79
2023-10-09T07:30:28.187Z,71.63
2023-10-09T07:32:55.785Z,71.89
2023-10-09T07:35:41.090Z,73.12
2023-10-09T07:38:10.675Z,69.43
2023-10-09T07:40:56.104Z,66.03
2023-10-09T07:43:30.040Z,71.11
2023-10-09T07:46:00.097Z,67.67
2023-10-09T07:48:27.239Z,69.02
2023-10-09T07:50:58.904Z,64.01
2023-10-09T07:53:28.411Z,75.86
2023-10-09T07:55:56.544Z,68.03
2023-10-09T07:58:26.336Z,66.07
2023-10-09T08:00:59.665Z,65.28
2023-10-09T08:03:26.867Z,65.90
2023-10-09T08:05:55.103Z,58.24
2023-10-09T08:08:40.750Z,67.66
2023-10-09T08:11:28.653Z,63.98
2023-10-09T08:13:56.850Z,66.98
2023-10-09T08:16:27.065Z,69.45
2023-10-09T08:18:58.397Z,61.69
2023-10-09T08:21:43.268Z,60.69
2023-10-09T08:24:30.133Z,58.45
2023-10-09T08:27:16.888Z,55.87
2023-10-09T08:29:48.004Z,71.40
2023-10-09T08:34:15.343Z,58.80
2023-10-09T08:35:20.313Z,60.51
2023-10-09T08:37:49.809Z,59.74
2023-10-09T08:40:21.694Z,59.27
2023-10-09T08:42:54.331Z,64.21
2023-10-09T08:45:25.922Z,59.01
2023-10-09T08:47:55.180Z,50.29
2023-10-09T08:50:22.475Z,63.18
2023-10-09T08:52:51.080Z,56.19
2023-10-09T08:55:18.218Z,47.87
2023-10-09T08:57:47.459Z,46.27
2023-10-09T09:00:22.476Z,43.30
2023-10-09T09:02:51.443Z,42.92
2023-10-09T09:05:19.715Z,42.66
2023-10-09T09:07:46.612Z,43.11
2023-10-09T09:10:19.352Z,42.29
2023-10-09T09:12:46.416Z,45.26
2023-10-09T09:15:21.252Z,45.49
2023-10-09T09:17:50.180Z,49.38
2023-10-09T09:20:31.668Z,56.62
2023-10-09T09:22:58.905Z,49.94
2023-10-09T09:25:44.652Z,51.60
2023-10-09T09:28:13.819Z,54.59
2023-10-09T09:30:42.144Z,59.11
2023-10-09T09:33:21.889Z,54.97
2023-10-09T09:36:00.657Z,56.62
2023-10-09T09:38:28.978Z,64.13
2023-10-09T09:40:58.080Z,63.36
2023-10-09T09:43:26.880Z,57.73
2023-10-09T09:45:54.770Z,63.71
2023-10-09T09:48:24.852Z,58.04
2023-10-09T09:50:55.370Z,64.64
2023-10-09T09:53:25.034Z,53.69
2023-10-09T09:55:59.308Z,48.75
2023-10-09T09:58:28.608Z,62.58
2023-10-09T10:01:02.394Z,54.82
2023-10-09T10:03:34.441Z,58.08
2023-10-09T10:06:07.160Z,50.31
2023-10-09T10:08:35.684Z,49.80
2023-10-09T10:11:15.070Z,58.74
2023-10-09T10:14:09.015Z,61.45
2023-10-09T10:17:04.201Z,54.97
2023-10-09T10:20:19.630Z,49.70
2023-10-09T10:22:49.596Z,56.15
2023-10-09T10:25:42.336Z,58.27
2023-10-09T10:28:40.570Z,50.99
2023-10-09T10:31:11.203Z,60.27
2023-10-09T10:34:08.641Z,54.04
2023-10-09T10:36:35.874Z,55.72
2023-10-09T10:39:06.637Z,49.52
2023-10-09T10:41:37.671Z,54.15
2023-10-09T10:44:32.559Z,54.87
2023-10-09T10:46:59.464Z,63.45
2023-10-09T10:49:37.534Z,52.87
2023-10-09T10:52:19.937Z,56.81
2023-10-09T10:54:47.194Z,44.35
2023-10-09T10:57:31.632Z,54.52
2023-10-09T11:00:07.255Z,43.22
2023-10-09T11:02:38.682Z,51.96
2023-10-09T11:05:16.074Z,44.39
2023-10-09T11:07:43.612Z,47.98
2023-10-09T11:10:11.835Z,45.26
2023-10-09T11:13:06.691Z,44.33
2023-10-09T11:15:46.538Z,48.63
2023-10-09T11:18:20.582Z,44.56
2023-10-09T11:21:16.721Z,46.09
2023-10-09T11:23:53.251Z,44.16
2023-10-09T11:26:30.221Z,45.01
2023-10-09T11:29:26.923Z,41.33
2023-10-09T11:32:01.906Z,43.04
2023-10-09T11:34:39.058Z,42.22
2023-10-09T11:37:16.757Z,44.53
2023-10-09T11:39:55.898Z,41.71
2023-10-09T11:42:38.856Z,41.58
2023-10-09T11:45:20.677Z,41.62
2023-10-09T11:47:58.304Z,43.71
2023-10-09T11:50:44.080Z,39.83
2023-10-09T11:53:23.641Z,40.42
2023-10-09T11:55:51.226Z,41.59
2023-10-09T11:58:24.405Z,47.60
2023-10-09T12:00:57.856Z,51.92
2023-10-09T12:03:29.456Z,46.88
2023-10-09T12:05:57.448Z,47.60
2023-10-09T12:08:27.637Z,39.49
2023-10-09T12:10:57.519Z,45.80
2023-10-09T12:13:24.322Z,41.20
2023-10-09T12:15:53.645Z,42.04
2023-10-09T12:18:22.939Z,40.93
2023-10-09T12:20:52.615Z,44.37
2023-10-09T12:23:20.238Z,41.10
2023-10-09T12:25:49.005Z,40.21
2023-10-09T12:28:15.703Z,42.42
2023-10-09T12:30:42.815Z,37.94
2023-10-09T12:33:10.565Z,41.00
2023-10-09T12:35:39.616Z,44.35
2023-10-09T12:38:09.938Z,42.40
2023-10-09T12:40:37.305Z,43.12
2023-10-09T12:43:04.623Z,48.18
2023-10-09T12:45:35.026Z,42.48
2023-10-09T12:48:04.546Z,46.33
2023-10-09T12:50:34.869Z,41.72
2023-10-09T12:53:03.441Z,43.91
2023-10-09T12:55:33.136Z,48.62
2023-10-09T12:58:07.408Z,47.34
2023-10-09T13:00:38.239Z,50.60
2023-10-09T13:03:17.426Z,44.04
2023-10-09T13:05:57.319Z,43.20
2023-10-09T13:08:33.037Z,44.36
2023-10-09T13:11:11.562Z,40.81
2023-10-09T13:13:47.741Z,43.50
2023-10-09T13:16:25.524Z,44.64
2023-10-09T13:18:53.974Z,47.71
2023-10-09T13:21:21.842Z,45.87
2023-10-09T13:23:51.106Z,46.84
2023-10-09T13:26:33.121Z,47.39
2023-10-09T13:29:02.805Z,49.93
2023-10-09T13:31:33.272Z,51.88
2023-10-09T13:34:02.289Z,48.41
2023-10-09T13:36:32.277Z,49.48
2023-10-09T13:39:23.521Z,52.54
2023-10-09T13:41:51.303Z,51.90
2023-10-09T13:44:18.085Z,55.38
2023-10-09T13:46:45.435Z,55.48
2023-10-09T13:49:15.710Z,58.52
2023-10-09T13:51:45.853Z,57.87
2023-10-09T13:54:29.804Z,57.36
2023-10-09T13:56:56.595Z,60.51
2023-10-09T13:59:26.081Z,59.31
2023-10-09T14:01:56.035Z,58.63
2023-10-09T14:04:24.142Z,59.62
2023-10-09T14:06:58.131Z,60.07
2023-10-09T14:09:39.021Z,61.23
2023-10-09T14:12:07.906Z,61.99
2023-10-09T14:14:35.811Z,61.61
2023-10-09T14:17:02.572Z,61.60
2023-10-09T14:19:34.300Z,59.73
2023-10-09T14:22:00.997Z,58.08
2023-10-09T14:24:34.037Z,61.68
2023-10-09T14:27:00.821Z,62.58
2023-10-09T14:29:27.996Z,62.45
2023-10-09T14:32:01.642Z,63.14
2023-10-09T14:34:36.950Z,62.72
2023-10-09T14:37:04.396Z,63.45
2023-10-09T14:39:37.877Z,63.09
2023-10-09T14:42:10.631Z,62.79
2023-10-09T14:44:40.020Z,63.47
2023-10-09T14:47:06.774Z,59.86
2023-10-09T14:49:38.522Z,63.29
2023-10-09T14:52:09.547Z,63.42
2023-10-09T14:54:39.227Z,63.43
2023-10-09T14:57:07.193Z,64.29
2023-10-09T14:59:34.261Z,64.58
2023-10-09T15:02:01.059Z,63.71
2023-10-09T15:04:27.916Z,63.97
2023-10-09T15:06:54.603Z,64.60
2023-10-09T15:09:24.419Z,63.44
2023-10-09T15:11:53.195Z,64.79
2023-10-09T15:14:19.970Z,64.80
2023-10-09T15:16:47.758Z,64.63
2023-10-09T15:19:15.590Z,63.37
2023-10-09T15:21:45.317Z,60.86
2023-10-09T15:24:20.548Z,64.17
2023-10-09T15:26:53.510Z,64.60
2023-10-09T15:29:29.018Z,64.00
2023-10-09T15:31:56.060Z,62.36
2023-10-09T15:34:22.963Z,63.23
2023-10-09T15:36:49.584Z,63.10
2023-10-09T15:39:20.271Z,63.63
2023-10-09T15:41:47.168Z,64.37
2023-10-09T15:44:17.840Z,63.44
2023-10-09T15:46:49.048Z,61.84
2023-10-09T15:49:16.466Z,61.89
2023-10-09T15:51:48.271Z,63.28
2023-10-09T15:54:17.561Z,61.65
2023-10-09T15:56:49.100Z,61.08
2023-10-09T15:59:25.421Z,64.17
2023-10-09T16:01:54.326Z,63.97
2023-10-09T16:04:21.070Z,64.29
2023-10-09T16:06:47.742Z,64.28
2023-10-09T16:09:16.377Z,58.01
2023-10-09T16:11:43.034Z,63.55
2023-10-09T16:14:11.040Z,62.83
2023-10-09T16:16:43.173Z,62.58
2023-10-09T16:19:11.908Z,62.07
2023-10-09T16:21:39.680Z,61.90
2023-10-09T16:24:07.309Z,62.28
2023-10-09T16:26:56.303Z,59.28
2023-10-09T16:29:23.655Z,58.56
2023-10-09T16:31:50.484Z,61.64
2023-10-09T16:34:18.538Z,61.54
2023-10-09T16:36:46.419Z,62.71
2023-10-09T16:39:25.429Z,62.30
2023-10-09T16:41:54.573Z,62.43
2023-10-09T16:44:21.240Z,62.45
2023-10-09T16:46:48.700Z,62.35
2023-10-09T16:49:15.614Z,62.78
2023-10-09T16:51:47.509Z,62.73
2023-10-09T16:54:16.619Z,62.57
2023-10-09T16:56:43.942Z,62.69
2023-10-09T16:59:15.155Z,62.96
2023-10-09T17:01:42.198Z,63.33
2023-10-09T17:04:12.964Z,59.88
2023-10-09T17:06:40.174Z,63.08
2023-10-09T17:09:08.844Z,61.78
2023-10-09T17:11:37.719Z,62.26
2023-10-09T17:14:07.122Z,62.47
2023-10-09T17:16:33.887Z,62.32
2023-10-09T17:19:06.988Z,62.36
2023-10-09T17:21:37.904Z,62.30
2023-10-09T17:24:05.635Z,61.62
2023-10-09T17:26:35.023Z,62.47
2023-10-09T17:29:01.490Z,62.84
2023-10-09T17:31:28.257Z,62.32
2023-10-09T17:33:55.277Z,62.71
2023-10-09T17:36:22.900Z,62.61
2023-10-09T17:38:52.664Z,61.16
2023-10-09T17:41:21.108Z,62.66
2023-10-09T17:43:49.199Z,61.79
2023-10-09T17:46:15.883Z,62.58
2023-10-09T17:48:43.102Z,65.12
2023-10-09T17:51:09.906Z,64.25
2023-10-09T17:53:39.314Z,63.17
2023-10-09T17:56:06.538Z,62.85
2023-10-09T17:58:33.220Z,62.71
2023-10-09T18:01:06.299Z,58.71
2023-10-09T18:03:33.664Z,63.20
2023-10-09T18:06:01.025Z,62.77
2023-10-09T18:08:27.790Z,62.95
2023-10-09T18:10:58.535Z,63.00
2023-10-09T18:13:28.627Z,62.94
2023-10-09T18:16:13.539Z,63.26
2023-10-09T18:18:51.425Z,63.03
2023-10-09T18:21:20.702Z,62.93
2023-10-09T18:23:48.958Z,62.96
2023-10-09T18:26:15.892Z,62.94
2023-10-09T18:28:43.005Z,63.18
2023-10-09T18:31:14.973Z,62.93
2023-10-09T18:33:44.445Z,62.93
2023-10-09T18:36:12.507Z,63.12
2023-10-09T18:38:39.703Z,64.40
2023-10-09T18:41:07.019Z,63.41
2023-10-09T18:43:36.055Z,63.01
2023-10-09T18:46:05.010Z,63.26
2023-10-09T18:48:33.288Z,63.15
2023-10-09T18:51:01.716Z,62.86
2023-10-09T18:53:32.702Z,63.03
2023-10-09T18:56:01.546Z,63.54
2023-10-09T18:58:28.664Z,63.07
2023-10-09T19:01:07.480Z,58.64
2023-10-09T19:03:35.892Z,62.25
2023-10-09T19:06:09.223Z,63.50
2023-10-09T19:08:36.062Z,63.08
2023-10-09T19:11:10.626Z,59.92
2023-10-09T19:13:38.095Z,60.11
2023-10-09T19:16:06.069Z,63.83
2023-10-09T19:18:35.684Z,63.32
2023-10-09T19:21:09.331Z,64.11
2023-10-09T19:23:36.840Z,61.74
2023-10-09T19:26:04.596Z,69.22
2023-10-09T19:28:31.449Z,64.53
2023-10-09T19:31:05.370Z,58.79
2023-10-09T19:33:36.377Z,63.95
2023-10-09T19:36:12.209Z,61.86
2023-10-09T19:38:39.198Z,61.79
2023-10-09T19:41:06.942Z,62.98
2023-10-09T19:43:35.166Z,63.65
2023-10-09T19:46:02.986Z,63.24
2023-10-09T19:48:29.711Z,62.78
2023-10-09T19:50:59.732Z,60.65
2023-10-09T19:53:27.924Z,64.90
2023-10-09T19:55:58.361Z,63.24
2023-10-09T19:58:27.749Z,63.00
2023-10-09T20:00:54.447Z,62.92
2023-10-09T20:03:24.062Z,62.92
2023-10-09T20:05:51.724Z,62.85
2023-10-09T20:08:18.449Z,62.66
2023-10-09T20:10:47.648Z,62.72
2023-10-09T20:13:14.268Z,62.89
2023-10-09T20:15:43.212Z,63.01
2023-10-09T20:18:09.939Z,62.86
2023-10-09T20:20:40.143Z,62.65
2023-10-09T20:23:08.743Z,62.78
2023-10-09T20:25:35.427Z,62.89
2023-10-09T20:28:03.646Z,62.75
2023-10-09T20:30:30.705Z,62.94
2023-10-09T20:32:57.382Z,62.68
2023-10-09T20:35:27.784Z,62.74
2023-10-09T20:38:02.551Z,62.84
2023-10-09T20:40:32.633Z,62.85
2023-10-09T20:42:59.265Z,62.98
2023-10-09T20:45:27.258Z,62.85
2023-10-09T20:47:56.580Z,62.97
2023-10-09T20:50:23.438Z,62.93
2023-10-09T20:52:50.692Z,62.99
2023-10-09T20:55:20.839Z,62.96
2023-10-09T20:57:47.476Z,62.75
2023-10-09T21:00:20.340Z,62.88
2023-10-09T21:02:49.430Z,63.11
2023-10-09T21:05:16.714Z,62.29
2023-10-09T21:07:45.432Z,62.38
2023-10-09T21:10:14.945Z,60.20
2023-10-09T21:12:42.357Z,58.14
2023-10-09T21:15:10.755Z,60.50
2023-10-09T21:17:38.857Z,63.92
2023-10-09T21:20:10.806Z,62.92
2023-10-09T21:22:38.380Z,62.48
2023-10-09T21:25:06.445Z,62.49
2023-10-09T21:27:34.562Z,62.80
2023-10-09T21:30:02.170Z,62.59
2023-10-09T21:32:29.055Z,62.70
2023-10-09T21:34:55.828Z,62.47
2023-10-09T21:37:23.791Z,62.48
2023-10-09T21:39:52.889Z,62.33
2023-10-09T21:42:19.628Z,62.51
2023-10-09T21:44:47.580Z,62.44
2023-10-09T21:47:14.964Z,62.93
2023-10-09T21:49:42.214Z,62.93
2023-10-09T21:52:09.123Z,62.89
2023-10-09T21:54:38.546Z,62.94
2023-10-09T21:57:05.188Z,63.38
2023-10-09T21:59:31.854Z,62.67
2023-10-09T22:01:58.762Z,63.13
2023-10-09T22:04:26.906Z,62.78
2023-10-09T22:06:53.512Z,62.83
2023-10-09T22:09:20.120Z,63.09
2023-10-09T22:11:48.087Z,63.13
2023-10-09T22:14:14.952Z,63.13
2023-10-09T22:16:41.740Z,62.75
2023-10-09T22:19:14.858Z,63.09
2023-10-09T22:21:42.614Z,63.34
2023-10-09T22:24:18.987Z,63.99
2023-10-09T22:26:45.690Z,63.30
2023-10-09T22:29:14.779Z,62.94
2023-10-09T22:31:47.311Z,64.15
2023-10-09T22:34:14.193Z,66.04
2023-10-09T22:36:54.265Z,63.66
2023-10-09T22:39:22.386Z,63.17
2023-10-09T22:41:55.557Z,63.05
2023-10-09T22:44:25.357Z,64.44
2023-10-09T22:46:52.854Z,64.08
2023-10-09T22:49:19.902Z,61.77
2023-10-09T22:51:52.543Z,63.24
2023-10-09T22:54:24.558Z,63.52
2023-10-09T22:56:52.788Z,63.18
2023-10-09T22:59:27.346Z,62.77
2023-10-09T23:01:56.486Z,63.18
2023-10-09T23:04:44.354Z,62.97
2023-10-09T23:07:17.095Z,63.11
2023-10-09T23:09:51.396Z,62.88
2023-10-09T23:12:23.624Z,62.95
2023-10-09T23:14:51.810Z,62.17
2023-10-09T23:17:20.280Z,62.97
2023-10-09T23:19:57.008Z,62.77
2023-10-09T23:22:46.364Z,63.02
2023-10-09T23:25:18.795Z,63.36
2023-10-09T23:27:45.386Z,63.49
2023-10-09T23:30:19.975Z,62.79
2023-10-09T23:32:48.528Z,62.97
2023-10-09T23:35:20.604Z,62.06
2023-10-09T23:38:06.259Z,64.06
2023-10-09T23:40:40.671Z,63.39
2023-10-09T23:43:13.883Z,60.77
2023-10-09T23:45:41.590Z,67.00
2023-10-09T23:48:16.283Z,67.92
2023-10-09T23:50:45.171Z,64.35
2023-10-09T23:53:15.869Z,63.42
2023-10-09T23:55:43.946Z,63.39
2023-10-09T23:58:20.119Z,61.80
